South Bend, NE (68058)

11:26 PM CDT on August 21, 2017 (GMT -0500)
Ashland, Nebraska | | Change Station

Elev 1047 ft 41.00 °N, 96.25 °W | Updated 1 minute ago

Rain
Rain
65.2 °F
Feels Like 65.2 °F
N
1.0
Wind Variable Wind from NE

Today
High -- | Low -- °F
--% Chance of Precip.
Yesterday
High -- | Low -- °F
Precip. -- in
Pressure 29.99 in
Visibility 10.0 miles
Clouds Scattered Clouds 7500 ft
Mostly Cloudy 10000 ft
Dew Point 63 °F
Humidity 93%
Rainfall 0.49 in
Snow Depth Not available.
6:41 AM 8:14 PM
New Moon, 0% visible
METAR KMLE 220415Z AUTO 14003KT 10SM -VCTSDZ SCT075 BKN100 20/19 A2999 RMK AO2 LTG DSNT ALQS P0001 T02000190
Pressure 29.99 in
Visibility 10.0 miles
Clouds Scattered Clouds 7500 ft
Mostly Cloudy 10000 ft
Dew Point 63 °F
Humidity 93%
Rainfall 0.49 in
Snow Depth Not available.
6:41 AM 8:14 PM
New Moon, 0% visible
METAR KMLE 220415Z AUTO 14003KT 10SM -VCTSDZ SCT075 BKN100 20/19 A2999 RMK AO2 LTG DSNT ALQS P0001 T02000190

Get Severe Weather Alerts

Thanks for signing up!

Be on the lookout for a verification email in your inbox.

You'll start receiving the daily forecast at 6 AM.

×

10-Day Weather Forecast

Almanac

Astronomy

Aug. 21, 2017 Rise Set
Actual Time
Civil Twilight
Nautical Twilight
Astronomical Twilight
Moon
Length of Visible Light
Length of Day
Tomorrow will be .
, % of the Moon is Illuminated

Today's Extremes

State Highs State Lows

Community

WunderPhotos

Category 6

Welcome to Category 6. This is the collective home for Weather Underground's featured writeups by Dr. Jeff Masters (right), Bob Henson (left), Chris Burt, and other regular contributors.

Nearby

Air Quality

  Air Quality AQ Index Pollutant
Not available.

Snow Depth

Station Depth Elevation

Earthquake Activity

City Distance Mag. Time & Date
Minimum magnitude displayed is 2.5.

Coastal Water Temperatures

Place Temperature

Stations

Nearby Weather Stations

Station Location Temp. Windchill Dew Point Humidity Wind Precip. Elev Updated Type
                   

Watches & Warnings

There are currently no watches in effect.